AirNav   $300 off a Bose A20 aviation headset
 
 690 users online  

6P7 McVille Airport
Freeport, Pennsylvania, USA

GOING TO FREEPORT?


FAA INFORMATION EFFECTIVE 28 FEBRUARY 2019

Location

FAA Identifier: 6P7
Lat/Long: 40-44-04.4250N / 079-35-44.3250W
40-44.073750N / 079-35.738750W
40.7345625 / -79.5956458
(estimated)
Elevation: 1104.5 ft. / 337 m (estimated)
Variation: 10W (2020)
From city: 7 miles NE of FREEPORT, PA
Time zone: UTC -5 (UTC -4 during Daylight Saving Time)
Zip code: 16229

Airport Operations

Airport use: Open to the public
Activation date: 12/2014
Control tower: no
ARTCC: CLEVELAND CENTER
FSS: ALTOONA FLIGHT SERVICE STATION
NOTAMs facility: AOO (NOTAM-D service available)
Attendance: 0800-1700
Wind indicator: lighted
Segmented circle: yes
Lights: ACTIVATE MIRLS RWY 14/32 - 122.8.
Beacon: white-green (lighted land airport)
Operates sunset to sunrise.

Airport Communications

CTAF/UNICOM: 123.0
JOHNSTOWN APPROACH: 121.2
JOHNSTOWN DEPARTURE: 121.2
WX AWOS-3PT at BTP (16 nm W): 121.450 (724-586-6434)
  • APCH/DEP SVC PRVDD BY CLEVELAND ARTCC ON FREQS 124.4/327.1 (ALTOONA RCAG) WHEN JOHNSTOWN (JST) APCH/DEP CLSD.

Nearby radio navigation aids

VOR radial/distance  VOR name  Freq  Var
CIPr200/25.5CLARION VOR/DME112.9006W
EWCr109/28.5ELLWOOD CITY VOR/DME115.8008W
AGCr046/34.1ALLEGHENY VOR/DME110.0009W

Airport Services

Fuel available: 100LL MOGAS
MOGAS IS 89 OCTANE
Parking: tiedowns
Airframe service: MAJOR
Powerplant service: MAJOR

Runway Information

Runway 14/32

Dimensions: 2800 x 60 ft. / 853 x 18 m
Surface: asphalt, in good condition
Runway edge lights: medium intensity
RUNWAY 14  RUNWAY 32
Latitude: 40-44.238000N40-43.909333N
Longitude: 079-35.952000W079-35.526833W
Elevation: 1104.5 ft.1104.5 ft.
Traffic pattern: leftleft
Runway heading: 145 magnetic, 135 true325 magnetic, 315 true
Markings: nonprecision, in fair conditionnonprecision, in fair condition
Runway end identifier lights: nono
Touchdown point: yes, no lightsyes, no lights

Airport Ownership and Management from official FAA records

Ownership: Privately-owned
Owner: THOMAS C & THEODORE J KIJOWSKI
444 FORDCITY RD
FREEPORT, PA 16229
Phone 724-294-2359
Manager: THOMAS C. KIJOWSKI
444 FORDCITY RD
FREEPORT, PA 16229
Phone 724-335-0390
412-418-3703.

Airport Operational Statistics

Aircraft based on the field: 19
Single engine airplanes: 19
    
Aircraft operations: avg 42/week *
64% local general aviation
36% transient general aviation
* for 12-month period ending 06 September 2018

Instrument Procedures

NOTE: All procedures below are presented as PDF files. If you need a reader for these files, you should download the free Adobe Reader.

NOT FOR NAVIGATION. Please procure official charts for flight.
FAA instrument procedures published for use from 28 February 2019 at 0901Z to 28 March 2019 at 0900Z.

 
IAPs - Instrument Approach Procedures
RNAV (GPS) RWY 14   download (169KB)
RNAV (GPS) RWY 32   download (179KB)
NOTE: Special Take-Off Minimums/Departure Procedures apply   download (289KB)

Other nearby airports with instrument procedures:

KBTP - Pittsburgh/Butler Regional Airport (16 nm W)
KIDI - Indiana County Airport (Jimmy Stewart Field) (23 nm E)
KPJC - Zelienople Municipal Airport (26 nm W)
KAGC - Allegheny County Airport (27 nm SW)
KLBE - Arnold Palmer Regional Airport (29 nm S)
 
Loc | Ops | Rwys | IFR | FBO | Links
Com | Nav | Svcs | Stats | Notes
Aerial photo
WARNING: Photo may not be current or correct
Aerial photo of 6P7 (McVille Airport)
Photo taken 22-Nov-2015
looking southwest.

Do you have a better or more recent aerial photo of McVille Airport that you would like to share? If so, please send us your photo.

 
Airport distance calculator
Flying to McVille Airport? Find the distance to fly.

From to 6P7

Sunrise and sunset
Times for 26-Mar-2019
 Local
(UTC-4)
 Zulu
(UTC)
Morning civil twilight06:4510:45
Sunrise07:1311:13
Sunset19:3523:35
Evening civil twilight20:0300:03

Current date and time
Zulu (UTC)  27-Mar-2019 03:52:48
Local (UTC-4)  26-Mar-2019 23:52:48
 
METAR
KBTP 
16nm W 
270256Z AUTO 35004KT 10SM CLR M01/M12 A3037 RMK AO2 SLP306 T10061117 51015 FZRANO
KIDI 
24nm E 
270335Z AUTO 00000KT 10SM CLR M01/M09 A3039 RMK A01
KAGC 
27nm SW 
270253Z 35007KT 10SM CLR 01/M09 A3035 RMK AO2 SLP294 T00111094 51013
KLBE 
29nm S 
270335Z AUTO 00000KT 10SM CLR M02/M09 A3036 RMK AO2
TAF
KAGC 
27nm SW 
261720Z 2618/2718 01006KT P6SM SKC FM271200 14005KT P6SM SKC
KLBE 
29nm S 
261720Z 2618/2718 01005KT P6SM SKC FM271200 15004KT P6SM SKC
KPIT 
34nm SW 
262055Z 2621/2724 01008KT P6SM SKC FM271200 15005KT P6SM SKC
NOTAMs
Click for the latest NOTAMs
NOTAMs are issued by the DoD/FAA and will open in a separate window not controlled by AirNav.

 

 
 

FBO, Fuel Providers, and Aircraft Ground Support

  
 Business Name 
 
 Contact 
 
 Services / Description 
 
Fuel Prices
 
Comments
  
McVille Airport 724-294-2359
no information available

If you are affiliated with McVille Airport and would like to show here your services, contact info, web link, logo, and more, click here
100LL Mogas
FS --- $3.95 
SS $4.49 --- 
 Updated 06-Mar-2019
 
   write
FS=Full service
SS=Self service
Update Fuel Prices
 

Would you like to see your business listed on this page?

 If your business provides an interesting product or service to pilots, flight crews, aircraft, or users of the McVille Airport, you should consider listing it here.  To start the listing process, click on the button below
 
Add a business
 

Other Pages about McVille Airport

Update a link
 
Copyright © AirNav, LLC. All rights reserved. Privacy Policy  Contact